Time;durP1;ratioP1;P1;durP2;ratioP2;P2;SDS_P1;SDS_P2;PMS_P1;PMS_P2;Temp;Humidity;BMP_temperature;BMP_pressure;BME280_temperature;BME280_humidity;BME280_pressure;Samples;Min_cycle;Max_cycle;Signal;HPM_P1;HPM_P2
2023/07/31 00:02:14;;;;;;;;;;;18.30;78.40;;;;;;5087921;28;19986;-74
2023/07/31 00:04:40;;;;;;;;;;;18.20;78.40;;;;;;5086794;28;19912;-74
2023/07/31 00:07:06;;;;;;;;;;;18.20;78.40;;;;;;5088117;28;19908;-74
2023/07/31 00:09:34;;;;;;;;;;;18.20;78.40;;;;;;5088137;28;19947;-74
2023/07/31 00:12:00;;;;;;;;;;;18.10;78.30;;;;;;5088141;28;19923;-74
2023/07/31 00:14:25;;;;;;;;;;;18.10;78.40;;;;;;5086544;28;19908;-74
2023/07/31 00:16:51;;;;;;;;;;;18.10;78.40;;;;;;5088026;28;19998;-73
2023/07/31 00:19:17;;;;;;;;;;;18.00;78.30;;;;;;5088009;28;19916;-74
2023/07/31 00:21:42;;;;;;;;;;;18.00;78.80;;;;;;5086635;28;19912;-74
2023/07/31 00:24:08;;;;;;;;;;;18.00;78.40;;;;;;5087952;28;20494;-74
2023/07/31 00:26:33;;;;;;;;;;;18.00;78.40;;;;;;5087793;28;20296;-74
2023/07/31 00:28:59;;;;;;;;;;;18.00;78.40;;;;;;5087959;28;19931;-74
2023/07/31 00:31:24;;;;;;;;;;;18.00;78.40;;;;;;5087976;28;19918;-74
2023/07/31 00:33:50;;;;;;;;;;;18.00;78.50;;;;;;5086513;28;19912;-73
2023/07/31 00:36:15;;;;;;;;;;;17.90;78.40;;;;;;5087739;28;19919;-74
2023/07/31 00:38:41;;;;;;;;;;;17.90;78.40;;;;;;5087891;28;20006;-74
2023/07/31 00:41:06;;;;;;;;;;;17.90;78.40;;;;;;5087760;28;19913;-74
2023/07/31 00:43:32;;;;;;;;;;;17.90;78.50;;;;;;5087768;28;19917;-74
2023/07/31 00:45:57;;;;;;;;;;;17.90;78.50;;;;;;5087602;28;19936;-74
2023/07/31 00:48:23;;;;;;;;;;;17.90;78.40;;;;;;5087724;28;19913;-73
2023/07/31 00:50:49;;;;;;;;;;;17.90;78.50;;;;;;5086408;28;20003;-73
2023/07/31 00:53:15;;;;;;;;;;;17.90;78.50;;;;;;5087683;28;19912;-73
2023/07/31 00:55:41;;;;;;;;;;;17.90;78.50;;;;;;5087623;28;20295;-74
2023/07/31 00:58:06;;;;;;;;;;;17.90;78.50;;;;;;5089216;28;19912;-73
2023/07/31 01:00:32;;;;;;;;;;;17.90;78.60;;;;;;5087485;28;19937;-74
2023/07/31 01:02:58;;;;;;;;;;;17.90;78.60;;;;;;5087510;28;20352;-74
2023/07/31 01:05:44;;;;;;;;;;;17.90;78.60;;;;;;5087448;28;19956;-73
2023/07/31 01:08:15;;;;;;;;;;;17.90;78.60;;;;;;5083236;28;19969;-73
2023/07/31 01:10:50;;;;;;;;;;;17.90;78.60;;;;;;5087559;28;19908;-73
2023/07/31 01:13:17;;;;;;;;;;;17.90;78.60;;;;;;5090025;28;19916;-73
2023/07/31 01:15:43;;;;;;;;;;;17.90;78.60;;;;;;5091299;28;20003;-73
2023/07/31 01:18:08;;;;;;;;;;;17.90;78.50;;;;;;5091296;28;19995;-74
2023/07/31 01:20:35;;;;;;;;;;;17.90;78.50;;;;;;5091513;28;19912;-74
2023/07/31 01:23:01;;;;;;;;;;;17.90;78.40;;;;;;5091327;28;20006;-74
2023/07/31 01:25:32;;;;;;;;;;;17.80;78.40;;;;;;5091082;28;20003;-74
2023/07/31 01:28:05;;;;;;;;;;;17.80;78.40;;;;;;5091097;28;19972;-74
2023/07/31 01:30:37;;;;;;;;;;;17.80;78.40;;;;;;5091013;28;19930;-74
2023/07/31 01:33:06;;;;;;;;;;;17.70;78.40;;;;;;5089743;28;19916;-74
2023/07/31 01:35:35;;;;;;;;;;;17.70;78.40;;;;;;5090966;28;20352;-74
2023/07/31 01:38:01;;;;;;;;;;;17.70;78.50;;;;;;5090950;28;19915;-74
2023/07/31 01:40:26;;;;;;;;;;;17.70;78.50;;;;;;5090872;28;19913;-73
2023/07/31 01:42:52;;;;;;;;;;;17.60;78.50;;;;;;5089401;28;19958;-73
2023/07/31 01:45:17;;;;;;;;;;;17.60;78.50;;;;;;5089474;28;19916;-74
2023/07/31 01:47:43;;;;;;;;;;;17.60;78.50;;;;;;5090777;28;19913;-74
2023/07/31 01:50:09;;;;;;;;;;;17.60;78.60;;;;;;5090754;28;19923;-74
2023/07/31 01:52:34;;;;;;;;;;;17.60;78.60;;;;;;5091062;28;19964;-73
2023/07/31 01:55:00;;;;;;;;;;;17.70;78.70;;;;;;5090523;28;19919;-74
2023/07/31 01:57:25;;;;;;;;;;;17.70;78.60;;;;;;5090513;28;19923;-74
2023/07/31 01:59:53;;;;;;;;;;;17.70;78.60;;;;;;5090514;28;19916;-74
2023/07/31 02:02:19;;;;;;;;;;;17.80;78.70;;;;;;5090214;28;20109;-74
2023/07/31 02:04:44;;;;;;;;;;;17.80;78.70;;;;;;5089001;28;20003;-74
2023/07/31 02:07:10;;;;;;;;;;;17.80;78.70;;;;;;5090439;28;20451;-73
2023/07/31 02:09:35;;;;;;;;;;;17.80;78.70;;;;;;5090321;28;20493;-74
2023/07/31 02:12:01;;;;;;;;;;;17.80;78.60;;;;;;5090217;28;19916;-74
2023/07/31 02:14:26;;;;;;;;;;;17.80;78.60;;;;;;5072074;28;20395;-74
2023/07/31 02:16:52;;;;;;;;;;;17.80;78.60;;;;;;5090249;28;20297;-74
2023/07/31 02:19:17;;;;;;;;;;;17.80;78.60;;;;;;5088782;28;19917;-74
2023/07/31 02:21:43;;;;;;;;;;;17.80;78.50;;;;;;5088814;28;19908;-73
2023/07/31 02:24:09;;;;;;;;;;;17.80;78.60;;;;;;5087883;28;19916;-73
2023/07/31 02:26:34;;;;;;;;;;;17.80;78.60;;;;;;5089909;28;19999;-74
2023/07/31 02:29:00;;;;;;;;;;;17.80;78.60;;;;;;5088644;28;19912;-74
2023/07/31 02:31:25;;;;;;;;;;;17.90;78.70;;;;;;5089967;28;19961;-74
2023/07/31 02:33:51;;;;;;;;;;;17.80;78.60;;;;;;5088501;28;20023;-74
2023/07/31 02:36:17;;;;;;;;;;;17.90;78.70;;;;;;5090158;28;20221;-74
2023/07/31 02:38:42;;;;;;;;;;;17.80;78.70;;;;;;5088569;28;19954;-73
2023/07/31 02:41:08;;;;;;;;;;;17.80;78.70;;;;;;5089890;28;19912;-74
2023/07/31 02:43:33;;;;;;;;;;;17.80;78.70;;;;;;5088378;28;19980;-74
2023/07/31 02:45:59;;;;;;;;;;;17.80;78.70;;;;;;5089449;28;19912;-74
2023/07/31 02:48:25;;;;;;;;;;;17.80;78.70;;;;;;5088236;28;19920;-74
2023/07/31 02:50:50;;;;;;;;;;;17.80;78.70;;;;;;5089561;28;19915;-74
2023/07/31 02:53:16;;;;;;;;;;;17.80;78.70;;;;;;5088432;28;19920;-74
2023/07/31 02:55:41;;;;;;;;;;;17.80;78.70;;;;;;5089374;28;19912;-74
2023/07/31 02:58:07;;;;;;;;;;;17.80;78.70;;;;;;5088116;28;19912;-74
2023/07/31 03:00:32;;;;;;;;;;;17.80;78.80;;;;;;5070995;28;20427;-74
2023/07/31 03:02:58;;;;;;;;;;;17.80;78.70;;;;;;5089202;28;20291;-74
2023/07/31 03:05:23;;;;;;;;;;;17.80;78.70;;;;;;5089221;28;19912;-74
2023/07/31 03:07:49;;;;;;;;;;;17.70;78.70;;;;;;5089197;28;20103;-74
2023/07/31 03:10:15;;;;;;;;;;;17.70;78.70;;;;;;5089135;28;20488;-74
2023/07/31 03:12:40;;;;;;;;;;;17.70;78.70;;;;;;5088936;28;19966;-74
2023/07/31 03:15:06;;;;;;;;;;;17.70;78.70;;;;;;5088964;28;19982;-74
2023/07/31 03:17:32;;;;;;;;;;;17.70;78.80;;;;;;5087765;28;19912;-74
2023/07/31 03:19:57;;;;;;;;;;;17.70;79.20;;;;;;5089014;28;19973;-74
2023/07/31 03:22:23;;;;;;;;;;;17.70;78.80;;;;;;5088862;28;19916;-74
2023/07/31 03:24:48;;;;;;;;;;;17.70;78.80;;;;;;5088933;28;19948;-74
2023/07/31 03:27:14;;;;;;;;;;;17.70;78.80;;;;;;5089265;28;19912;-74
2023/07/31 03:29:39;;;;;;;;;;;17.70;78.80;;;;;;5088836;28;20054;-74
2023/07/31 03:32:05;;;;;;;;;;;17.70;78.80;;;;;;5088796;28;20315;-74
2023/07/31 03:34:31;;;;;;;;;;;17.70;78.80;;;;;;5087488;28;19912;-74
2023/07/31 03:36:57;;;;;;;;;;;17.80;78.80;;;;;;5088762;28;19923;-74
2023/07/31 03:39:23;;;;;;;;;;;17.70;78.80;;;;;;5088655;28;19908;-75
2023/07/31 03:41:49;;;;;;;;;;;17.80;78.80;;;;;;5088530;28;19931;-73
2023/07/31 03:44:14;;;;;;;;;;;17.80;78.80;;;;;;5088624;28;20387;-74
2023/07/31 03:46:40;;;;;;;;;;;17.80;78.80;;;;;;5088613;28;20134;-74
2023/07/31 03:49:05;;;;;;;;;;;17.80;78.80;;;;;;5088839;28;19916;-74
2023/07/31 03:51:31;;;;;;;;;;;17.80;78.80;;;;;;5088266;28;19954;-74
2023/07/31 03:53:56;;;;;;;;;;;17.70;78.80;;;;;;5088305;28;19923;-75
2023/07/31 03:56:22;;;;;;;;;;;17.70;78.80;;;;;;5088775;28;19920;-75
2023/07/31 03:58:47;;;;;;;;;;;17.80;78.90;;;;;;5086969;28;19951;-75
2023/07/31 04:01:13;;;;;;;;;;;17.70;78.80;;;;;;5088173;28;19928;-75
2023/07/31 04:03:40;;;;;;;;;;;17.70;78.80;;;;;;5087457;28;20457;-75
2023/07/31 04:06:07;;;;;;;;;;;17.70;79.30;;;;;;5087879;28;19916;-75
2023/07/31 04:08:32;;;;;;;;;;;17.70;78.80;;;;;;5088268;28;19957;-74
2023/07/31 04:10:58;;;;;;;;;;;17.70;78.80;;;;;;5087143;28;19916;-74
2023/07/31 04:13:24;;;;;;;;;;;17.70;78.80;;;;;;5088590;28;19927;-73
2023/07/31 04:15:54;;;;;;;;;;;17.70;78.70;;;;;;5088118;28;19920;-74
2023/07/31 04:18:19;;;;;;;;;;;17.70;78.80;;;;;;5088050;28;19958;-74
2023/07/31 04:20:45;;;;;;;;;;;17.70;78.80;;;;;;5088099;28;19916;-74
2023/07/31 04:23:11;;;;;;;;;;;17.70;78.80;;;;;;5087925;28;19923;-74
2023/07/31 04:25:36;;;;;;;;;;;17.70;78.90;;;;;;5086748;28;19908;-74
2023/07/31 04:28:02;;;;;;;;;;;17.70;78.90;;;;;;5087929;28;19912;-74
2023/07/31 04:30:27;;;;;;;;;;;17.70;78.90;;;;;;5087902;28;19946;-74
2023/07/31 04:32:53;;;;;;;;;;;17.70;78.90;;;;;;5087833;28;19915;-74
2023/07/31 04:35:19;;;;;;;;;;;17.70;78.90;;;;;;5087857;28;19923;-74
2023/07/31 04:37:46;;;;;;;;;;;17.70;78.80;;;;;;5086590;28;19912;-74
2023/07/31 04:40:12;;;;;;;;;;;17.70;78.80;;;;;;5086401;28;19912;-74
2023/07/31 04:42:37;;;;;;;;;;;17.70;78.80;;;;;;5086275;28;19926;-74
2023/07/31 04:45:03;;;;;;;;;;;17.70;78.80;;;;;;5087912;28;19919;-74
2023/07/31 04:47:28;;;;;;;;;;;17.60;78.80;;;;;;5090206;28;19915;-74
2023/07/31 04:49:54;;;;;;;;;;;17.60;78.80;;;;;;5091894;28;19930;-74
2023/07/31 04:52:19;;;;;;;;;;;17.60;78.80;;;;;;5091827;28;20003;-74
2023/07/31 04:54:45;;;;;;;;;;;17.60;78.80;;;;;;5091658;28;20368;-74
2023/07/31 04:57:10;;;;;;;;;;;17.60;78.80;;;;;;5091673;28;20291;-74
2023/07/31 04:59:36;;;;;;;;;;;17.60;78.80;;;;;;5090435;28;19947;-74
2023/07/31 05:02:02;;;;;;;;;;;17.60;78.80;;;;;;5091755;28;19920;-74
2023/07/31 05:04:27;;;;;;;;;;;17.60;78.80;;;;;;5091553;28;19919;-74
2023/07/31 05:06:53;;;;;;;;;;;17.60;78.80;;;;;;5091540;28;19912;-74
2023/07/31 05:09:18;;;;;;;;;;;17.60;78.80;;;;;;5091485;28;20039;-75
2023/07/31 05:11:44;;;;;;;;;;;17.50;78.80;;;;;;5091583;28;19913;-73
2023/07/31 05:14:10;;;;;;;;;;;17.50;78.70;;;;;;5091341;28;19916;-74
2023/07/31 05:16:35;;;;;;;;;;;17.50;78.70;;;;;;5091228;28;19938;-74
2023/07/31 05:19:01;;;;;;;;;;;17.50;78.80;;;;;;5091351;28;19916;-74
2023/07/31 05:21:26;;;;;;;;;;;17.50;78.80;;;;;;5089718;28;19989;-74
2023/07/31 05:23:52;;;;;;;;;;;17.40;78.80;;;;;;5089707;28;19916;-74
2023/07/31 05:26:18;;;;;;;;;;;17.50;78.90;;;;;;5089843;28;19912;-74
2023/07/31 05:28:43;;;;;;;;;;;17.50;78.90;;;;;;5091170;28;19930;-74
2023/07/31 05:31:09;;;;;;;;;;;17.50;78.90;;;;;;5089474;28;19969;-74
2023/07/31 05:33:34;;;;;;;;;;;17.50;79.00;;;;;;5090911;28;20292;-74
2023/07/31 05:36:00;;;;;;;;;;;17.50;78.90;;;;;;5090911;28;20003;-74
2023/07/31 05:38:26;;;;;;;;;;;17.50;78.80;;;;;;5089456;28;19954;-73
2023/07/31 05:40:51;;;;;;;;;;;17.50;78.80;;;;;;5089622;28;20272;-74
2023/07/31 05:43:17;;;;;;;;;;;17.50;78.90;;;;;;5090702;28;19973;-74
2023/07/31 05:45:42;;;;;;;;;;;17.50;78.90;;;;;;5089460;28;19912;-75
2023/07/31 05:48:08;;;;;;;;;;;17.50;78.90;;;;;;5090585;28;19915;-75
2023/07/31 05:50:34;;;;;;;;;;;17.60;78.90;;;;;;5091499;28;19912;-74
2023/07/31 05:52:59;;;;;;;;;;;17.60;78.90;;;;;;5090572;28;19970;-75
2023/07/31 05:55:28;;;;;;;;;;;17.60;78.80;;;;;;5090527;28;19912;-74
2023/07/31 05:57:53;;;;;;;;;;;17.60;78.80;;;;;;5089231;28;19919;-74
2023/07/31 06:00:20;;;;;;;;;;;17.50;78.80;;;;;;5071945;28;20360;-75
2023/07/31 06:02:47;;;;;;;;;;;17.50;78.80;;;;;;5090205;28;19967;-74
2023/07/31 06:05:12;;;;;;;;;;;17.40;78.70;;;;;;5089087;28;19923;-73
2023/07/31 06:07:38;;;;;;;;;;;17.40;78.70;;;;;;5090251;28;19912;-75
2023/07/31 06:10:05;;;;;;;;;;;17.40;78.70;;;;;;5090235;28;19915;-74
2023/07/31 06:12:34;;;;;;;;;;;17.30;78.70;;;;;;5089117;28;19913;-75
2023/07/31 06:15:00;;;;;;;;;;;17.30;78.70;;;;;;5090367;28;19912;-74
2023/07/31 06:17:26;;;;;;;;;;;17.30;79.30;;;;;;5090125;28;20303;-74
2023/07/31 06:19:52;;;;;;;;;;;17.30;78.80;;;;;;5090414;28;19920;-74
2023/07/31 06:22:17;;;;;;;;;;;17.30;78.90;;;;;;5089890;28;20002;-74
2023/07/31 06:24:43;;;;;;;;;;;17.30;78.90;;;;;;5088560;28;20268;-74
2023/07/31 06:27:09;;;;;;;;;;;17.40;78.90;;;;;;5090017;28;20357;-75
2023/07/31 06:29:34;;;;;;;;;;;17.40;78.90;;;;;;5089672;28;19912;-74
2023/07/31 06:32:00;;;;;;;;;;;17.50;79.40;;;;;;5090151;28;19916;-74
2023/07/31 06:34:25;;;;;;;;;;;17.60;78.90;;;;;;5088351;28;20307;-75
2023/07/31 06:36:51;;;;;;;;;;;17.60;78.90;;;;;;5089591;28;19916;-74
2023/07/31 06:39:17;;;;;;;;;;;17.60;78.80;;;;;;5089826;28;19908;-74
2023/07/31 06:41:42;;;;;;;;;;;17.60;78.80;;;;;;5089747;28;19912;-75
2023/07/31 06:44:08;;;;;;;;;;;17.60;78.80;;;;;;5089418;28;20384;-75
2023/07/31 06:46:34;;;;;;;;;;;17.60;78.80;;;;;;5089677;28;19915;-70
2023/07/31 06:48:59;;;;;;;;;;;17.60;78.90;;;;;;5089577;28;20371;-75
2023/07/31 06:51:25;;;;;;;;;;;17.60;78.90;;;;;;5088150;28;20390;-75
2023/07/31 06:53:50;;;;;;;;;;;17.60;78.90;;;;;;5089582;28;20310;-75
2023/07/31 06:56:16;;;;;;;;;;;17.60;78.90;;;;;;5089396;28;19918;-75
2023/07/31 06:58:41;;;;;;;;;;;17.50;78.80;;;;;;5088892;28;20014;-75
2023/07/31 07:01:07;;;;;;;;;;;17.50;78.90;;;;;;5088555;28;19917;-75
2023/07/31 07:03:33;;;;;;;;;;;17.50;79.00;;;;;;5089021;28;20336;-75
2023/07/31 07:05:58;;;;;;;;;;;17.50;78.90;;;;;;5087528;28;19938;-75
2023/07/31 07:08:24;;;;;;;;;;;17.50;79.00;;;;;;5089056;28;19917;-74
2023/07/31 07:10:50;;;;;;;;;;;17.50;79.00;;;;;;5088575;28;19920;-75
2023/07/31 07:13:16;;;;;;;;;;;17.50;79.00;;;;;;5088812;28;19960;-75
2023/07/31 07:15:41;;;;;;;;;;;17.50;79.00;;;;;;5088745;28;19919;-75
2023/07/31 07:18:07;;;;;;;;;;;17.50;79.00;;;;;;5088946;28;19965;-75
2023/07/31 07:20:32;;;;;;;;;;;17.50;79.00;;;;;;5088882;28;19908;-74
2023/07/31 07:22:58;;;;;;;;;;;17.60;79.10;;;;;;5088635;28;19951;-75
2023/07/31 07:25:23;;;;;;;;;;;17.60;79.00;;;;;;5088677;28;19994;-74
2023/07/31 07:27:49;;;;;;;;;;;17.50;78.90;;;;;;5090056;28;19917;-75
2023/07/31 07:30:15;;;;;;;;;;;17.60;79.00;;;;;;5088739;28;19912;-75
2023/07/31 07:32:40;;;;;;;;;;;17.60;79.00;;;;;;5088636;28;20396;-75
2023/07/31 07:35:06;;;;;;;;;;;17.50;78.90;;;;;;5088556;28;20296;-75
2023/07/31 07:37:32;;;;;;;;;;;17.50;78.80;;;;;;5086864;28;19954;-75
2023/07/31 07:39:57;;;;;;;;;;;17.40;78.70;;;;;;5088492;28;19916;-75
2023/07/31 07:42:23;;;;;;;;;;;17.40;78.80;;;;;;5088309;28;19916;-74
2023/07/31 07:44:48;;;;;;;;;;;17.40;78.90;;;;;;5088376;28;20077;-75
2023/07/31 07:47:14;;;;;;;;;;;17.40;79.00;;;;;;5088038;28;20357;-74
2023/07/31 07:49:40;;;;;;;;;;;17.50;79.00;;;;;;5088305;28;19912;-74
2023/07/31 07:52:05;;;;;;;;;;;17.50;79.00;;;;;;5088254;28;19984;-75
2023/07/31 07:54:31;;;;;;;;;;;17.60;79.10;;;;;;5088081;28;19913;-75
2023/07/31 07:56:57;;;;;;;;;;;17.70;79.10;;;;;;5088068;28;19908;-75
2023/07/31 07:59:22;;;;;;;;;;;17.80;79.00;;;;;;5088119;28;20380;-75
2023/07/31 08:01:48;;;;;;;;;;;17.90;79.00;;;;;;5087947;28;20292;-74
2023/07/31 08:04:13;;;;;;;;;;;17.90;78.90;;;;;;5087964;28;19981;-75
2023/07/31 08:06:39;;;;;;;;;;;18.00;78.80;;;;;;5087556;28;19916;-75
2023/07/31 08:09:06;;;;;;;;;;;18.10;78.80;;;;;;5088143;28;19912;-75
2023/07/31 08:11:34;;;;;;;;;;;18.10;78.80;;;;;;5086831;28;19946;-75
2023/07/31 08:14:00;;;;;;;;;;;18.00;78.80;;;;;;5089243;28;19960;-74
2023/07/31 08:16:26;;;;;;;;;;;18.00;78.70;;;;;;5087808;28;20028;-75
2023/07/31 08:18:51;;;;;;;;;;;18.00;78.80;;;;;;5086519;28;19920;-75
2023/07/31 08:21:17;;;;;;;;;;;18.00;78.90;;;;;;5085802;28;20442;-75
2023/07/31 08:23:42;;;;;;;;;;;17.90;78.80;;;;;;5087548;28;19924;-75
2023/07/31 08:26:14;;;;;;;;;;;17.90;78.90;;;;;;5086305;28;19912;-75
2023/07/31 08:28:40;;;;;;;;;;;17.90;78.90;;;;;;5087586;28;20060;-75
2023/07/31 08:31:05;;;;;;;;;;;17.90;78.80;;;;;;5085748;28;20191;-75
2023/07/31 08:33:31;;;;;;;;;;;17.80;78.70;;;;;;5086337;28;19935;-75
2023/07/31 08:35:57;;;;;;;;;;;17.80;78.80;;;;;;5087325;28;19978;-74
2023/07/31 08:38:25;;;;;;;;;;;17.80;78.90;;;;;;5087379;28;20396;-76
2023/07/31 08:40:50;;;;;;;;;;;17.80;78.90;;;;;;5087579;28;20265;-70
2023/07/31 08:43:16;;;;;;;;;;;17.90;79.10;;;;;;5087582;28;19912;-75
2023/07/31 08:45:42;;;;;;;;;;;17.90;79.10;;;;;;5087637;28;19919;-76
2023/07/31 08:48:07;;;;;;;;;;;18.10;79.20;;;;;;5087358;28;19940;-72
2023/07/31 08:50:33;;;;;;;;;;;18.30;79.30;;;;;;5087445;28;20326;-75
2023/07/31 08:52:59;;;;;;;;;;;18.50;79.40;;;;;;5087365;28;19952;-76
2023/07/31 08:55:25;;;;;;;;;;;18.70;79.20;;;;;;5072738;28;19939;-73
2023/07/31 08:57:52;;;;;;;;;;;18.80;78.80;;;;;;5069178;28;19958;-75
2023/07/31 09:00:20;;;;;;;;;;;19.00;78.80;;;;;;5067753;28;19908;-74
2023/07/31 09:02:51;;;;;;;;;;;19.00;78.70;;;;;;5069252;28;19931;-74
2023/07/31 09:05:17;;;;;;;;;;;19.10;78.70;;;;;;5070283;28;19944;-75
2023/07/31 09:07:46;;;;;;;;;;;19.20;78.70;;;;;;5070072;28;19908;-74
2023/07/31 09:10:11;;;;;;;;;;;19.20;78.60;;;;;;5067375;28;19928;-74
2023/07/31 09:12:38;;;;;;;;;;;19.20;78.50;;;;;;5050398;28;19923;-74
2023/07/31 09:15:04;;;;;;;;;;;19.20;78.50;;;;;;5064750;28;19915;-75
2023/07/31 09:17:30;;;;;;;;;;;19.10;78.50;;;;;;5065864;28;20295;-75
2023/07/31 09:19:56;;;;;;;;;;;19.00;78.60;;;;;;5064191;28;19908;-74
2023/07/31 09:22:31;;;;;;;;;;;19.00;78.70;;;;;;5065235;28;19923;-75
2023/07/31 09:25:03;;;;;;;;;;;18.90;78.70;;;;;;5065288;28;19912;-74
2023/07/31 09:27:45;;;;;;;;;;;18.80;78.70;;;;;;5068519;28;19956;-74
2023/07/31 09:30:10;;;;;;;;;;;18.80;78.80;;;;;;5069194;28;19953;-74
2023/07/31 09:32:37;;;;;;;;;;;18.70;78.90;;;;;;5069738;28;19995;-74
2023/07/31 09:35:23;;;;;;;;;;;18.60;78.80;;;;;;5072847;28;20364;-74
2023/07/31 09:37:53;;;;;;;;;;;18.50;78.70;;;;;;5064970;28;19920;-74
2023/07/31 09:40:31;;;;;;;;;;;18.40;78.80;;;;;;5072598;28;19988;-74
2023/07/31 09:42:58;;;;;;;;;;;18.30;78.80;;;;;;5071269;28;19926;-75
2023/07/31 09:45:24;;;;;;;;;;;18.20;78.90;;;;;;5072351;28;19913;-75
2023/07/31 09:47:50;;;;;;;;;;;18.10;78.90;;;;;;5072272;28;19928;-74
2023/07/31 09:50:18;;;;;;;;;;;18.10;79.00;;;;;;5072406;28;19909;-74
2023/07/31 09:52:44;;;;;;;;;;;18.10;79.00;;;;;;5071133;28;19923;-74
2023/07/31 09:55:09;;;;;;;;;;;18.10;78.90;;;;;;5072033;28;19917;-75
2023/07/31 09:57:43;;;;;;;;;;;18.00;78.90;;;;;;5072102;28;19912;-76
2023/07/31 10:00:09;;;;;;;;;;;18.00;79.00;;;;;;5083342;28;19912;-75
2023/07/31 10:02:36;;;;;;;;;;;18.00;79.10;;;;;;5090092;28;19940;-74
2023/07/31 10:05:03;;;;;;;;;;;18.00;79.00;;;;;;5091035;28;19932;-73
2023/07/31 10:07:29;;;;;;;;;;;18.10;79.00;;;;;;5091187;28;19908;-75
2023/07/31 10:09:57;;;;;;;;;;;18.10;79.00;;;;;;5090112;28;20018;-75
2023/07/31 10:12:24;;;;;;;;;;;18.10;78.90;;;;;;5089839;28;19909;-74
2023/07/31 10:14:50;;;;;;;;;;;18.20;78.80;;;;;;5091986;28;19916;-76
2023/07/31 10:17:17;;;;;;;;;;;18.10;78.60;;;;;;5091922;28;19913;-77
2023/07/31 10:19:43;;;;;;;;;;;18.10;78.60;;;;;;5090770;28;20363;-75
2023/07/31 10:22:09;;;;;;;;;;;18.00;78.70;;;;;;5091603;28;19916;-75
2023/07/31 10:24:36;;;;;;;;;;;17.90;78.70;;;;;;5091528;28;20302;-75
2023/07/31 10:27:03;;;;;;;;;;;17.90;78.80;;;;;;5091194;28;19919;-72
2023/07/31 10:29:29;;;;;;;;;;;17.90;78.90;;;;;;5090787;28;20287;-76
2023/07/31 10:31:56;;;;;;;;;;;17.90;79.00;;;;;;5091036;28;19958;-76
2023/07/31 10:34:22;;;;;;;;;;;17.90;78.80;;;;;;5091119;28;19912;-76
2023/07/31 10:36:49;;;;;;;;;;;17.80;78.80;;;;;;5091026;28;19928;-76
2023/07/31 10:39:35;;;;;;;;;;;17.80;78.80;;;;;;5073349;28;20323;-75
2023/07/31 10:42:09;;;;;;;;;;;17.80;78.90;;;;;;5092644;28;19954;-76
2023/07/31 10:44:35;;;;;;;;;;;17.90;78.90;;;;;;5089519;28;19934;-76
2023/07/31 10:47:00;;;;;;;;;;;18.00;79.00;;;;;;5090010;28;19912;-76
2023/07/31 10:49:29;;;;;;;;;;;18.10;79.00;;;;;;5090795;28;19913;-75
2023/07/31 10:51:55;;;;;;;;;;;18.30;79.20;;;;;;5092067;28;19908;-77
2023/07/31 10:54:21;;;;;;;;;;;18.70;79.20;;;;;;5092439;28;19908;-76
2023/07/31 10:56:49;;;;;;;;;;;18.90;78.90;;;;;;5079428;28;19919;-79
2023/07/31 10:59:17;;;;;;;;;;;19.00;78.70;;;;;;5070253;28;19908;-76
2023/07/31 11:01:50;;;;;;;;;;;19.10;78.60;;;;;;5088074;28;19965;-76
2023/07/31 11:04:21;;;;;;;;;;;19.10;78.40;;;;;;5071415;28;19977;-76
2023/07/31 11:06:55;;;;;;;;;;;19.10;78.50;;;;;;5072366;28;19938;-75
2023/07/31 11:09:21;;;;;;;;;;;19.10;78.60;;;;;;5071851;28;20386;-67
2023/07/31 11:11:46;;;;;;;;;;;19.10;78.70;;;;;;5071721;28;19916;-76
2023/07/31 11:14:12;;;;;;;;;;;19.10;78.70;;;;;;5070466;28;19982;-73
2023/07/31 11:16:37;;;;;;;;;;;19.00;78.60;;;;;;5069870;28;20372;-74
2023/07/31 11:19:08;;;;;;;;;;;18.80;78.50;;;;;;5055860;28;20305;-72
2023/07/31 11:21:33;;;;;;;;;;;18.80;78.50;;;;;;5068605;28;20311;-74
2023/07/31 11:23:59;;;;;;;;;;;18.60;78.60;;;;;;5070057;28;19969;-75
2023/07/31 11:26:24;;;;;;;;;;;18.60;78.80;;;;;;5068932;28;19920;-73
2023/07/31 11:28:50;;;;;;;;;;;18.50;78.90;;;;;;5070816;28;19916;-75
2023/07/31 11:31:17;;;;;;;;;;;18.50;78.90;;;;;;5075691;28;19937;-73
2023/07/31 11:33:42;;;;;;;;;;;18.40;78.80;;;;;;5087444;28;20276;-62
2023/07/31 11:36:26;;;;;;;;;;;18.40;78.80;;;;;;5070140;28;19923;-76
2023/07/31 11:38:52;;;;;;;;;;;18.30;78.90;;;;;;5069380;28;19916;-76
2023/07/31 11:41:17;;;;;;;;;;;18.30;79.00;;;;;;5085083;28;19912;-75
2023/07/31 11:43:43;;;;;;;;;;;18.40;79.10;;;;;;5068840;28;19961;-75
2023/07/31 11:46:09;;;;;;;;;;;18.60;79.20;;;;;;5069074;28;19919;-74
2023/07/31 11:48:36;;;;;;;;;;;18.80;79.20;;;;;;5069138;28;20013;-74
2023/07/31 11:51:02;;;;;;;;;;;19.00;79.20;;;;;;5068042;28;19908;-74
2023/07/31 11:53:43;;;;;;;;;;;19.30;79.40;;;;;;5067980;28;19908;-74
2023/07/31 11:56:16;;;;;;;;;;;19.70;79.50;;;;;;5066569;28;19913;-75
2023/07/31 11:58:43;;;;;;;;;;;20.00;79.30;;;;;;5068536;28;20022;-76
2023/07/31 12:01:09;;;;;;;;;;;20.20;79.00;;;;;;5067791;28;20003;-74
2023/07/31 12:03:34;;;;;;;;;;;20.40;79.00;;;;;;5084918;28;20067;-75
2023/07/31 12:06:00;;;;;;;;;;;20.50;78.90;;;;;;5068411;28;20427;-72
2023/07/31 12:08:26;;;;;;;;;;;20.70;79.10;;;;;;5067210;28;19995;-72
2023/07/31 12:10:52;;;;;;;;;;;20.90;79.30;;;;;;5068757;28;20379;-73
2023/07/31 12:13:22;;;;;;;;;;;21.20;79.30;;;;;;5083746;28;19913;-73
2023/07/31 12:15:48;;;;;;;;;;;21.50;79.20;;;;;;5069421;28;19912;-74
2023/07/31 12:18:14;;;;;;;;;;;21.90;79.60;;;;;;5068187;28;20401;-72
2023/07/31 12:20:41;;;;;;;;;;;22.30;79.30;;;;;;5068268;28;19991;-73
2023/07/31 12:23:07;;;;;;;;;;;22.50;79.20;;;;;;5067831;28;19970;-73
2023/07/31 12:25:33;;;;;;;;;;;22.80;79.20;;;;;;5066749;28;20298;-69
2023/07/31 12:28:03;;;;;;;;;;;22.90;79.10;;;;;;5083462;28;20015;-73
2023/07/31 12:30:34;;;;;;;;;;;23.10;79.20;;;;;;5068299;28;20368;-74
2023/07/31 12:33:04;;;;;;;;;;;23.20;79.00;;;;;;5068112;28;19928;-73
2023/07/31 12:35:40;;;;;;;;;;;23.20;78.80;;;;;;5068004;28;19935;-73
2023/07/31 12:38:06;;;;;;;;;;;23.20;79.00;;;;;;5068077;28;19913;-74
2023/07/31 12:40:32;;;;;;;;;;;23.40;78.90;;;;;;5068084;28;20348;-73
2023/07/31 12:42:57;;;;;;;;;;;23.30;78.60;;;;;;5066618;28;19916;-73
2023/07/31 12:45:23;;;;;;;;;;;23.00;78.30;;;;;;5067804;28;19919;-73
2023/07/31 12:47:48;;;;;;;;;;;22.60;78.20;;;;;;5067764;28;19920;-72
2023/07/31 12:50:14;;;;;;;;;;;22.10;77.90;;;;;;5067617;28;20402;-73
2023/07/31 12:52:39;;;;;;;;;;;21.70;78.30;;;;;;5068037;28;20052;-73
2023/07/31 12:55:05;;;;;;;;;;;21.40;78.80;;;;;;5068082;28;19913;-75
2023/07/31 12:57:31;;;;;;;;;;;21.20;79.20;;;;;;5066666;28;19923;-73
2023/07/31 12:59:56;;;;;;;;;;;21.10;79.40;;;;;;5067685;28;19912;-74
2023/07/31 13:02:22;;;;;;;;;;;21.10;79.70;;;;;;5067487;28;19954;-73
2023/07/31 13:04:49;;;;;;;;;;;21.20;79.80;;;;;;5067851;28;19920;-73
2023/07/31 13:07:14;;;;;;;;;;;21.30;79.90;;;;;;5067460;28;19917;-72
2023/07/31 13:09:40;;;;;;;;;;;21.50;79.60;;;;;;5077730;28;19919;-73
2023/07/31 13:12:05;;;;;;;;;;;21.60;79.20;;;;;;5078353;28;20020;-73
2023/07/31 13:14:31;;;;;;;;;;;21.40;79.00;;;;;;5074506;28;19914;-73
2023/07/31 13:16:57;;;;;;;;;;;21.30;79.20;;;;;;5071430;28;19916;-74
2023/07/31 13:19:22;;;;;;;;;;;21.30;79.40;;;;;;5071951;28;19919;-79
2023/07/31 13:21:48;;;;;;;;;;;21.30;79.50;;;;;;5087327;28;20002;-73
2023/07/31 13:24:13;;;;;;;;;;;21.50;79.70;;;;;;5092133;28;19916;-74
2023/07/31 13:26:39;;;;;;;;;;;21.80;79.80;;;;;;5091627;28;19942;-73
2023/07/31 13:29:04;;;;;;;;;;;22.00;79.50;;;;;;5091989;28;20007;-74
2023/07/31 13:31:30;;;;;;;;;;;22.10;79.10;;;;;;5091673;28;20253;-74
2023/07/31 13:33:55;;;;;;;;;;;22.10;78.80;;;;;;5091887;28;19912;-73
2023/07/31 13:36:21;;;;;;;;;;;21.90;78.70;;;;;;5086859;28;19957;-74
2023/07/31 13:38:46;;;;;;;;;;;21.60;78.50;;;;;;5069979;28;19920;-73
2023/07/31 13:41:12;;;;;;;;;;;21.30;78.60;;;;;;5069875;28;19999;-73
2023/07/31 13:43:38;;;;;;;;;;;21.00;78.70;;;;;;5070728;28;20270;-73
2023/07/31 13:46:06;;;;;;;;;;;20.60;78.40;;;;;;5071503;28;19912;-73
2023/07/31 13:48:34;;;;;;;;;;;20.30;78.60;;;;;;5071059;28;19913;-73
2023/07/31 13:51:00;;;;;;;;;;;20.00;78.60;;;;;;5071360;28;19991;-73
2023/07/31 13:53:25;;;;;;;;;;;19.70;78.60;;;;;;5073231;28;19936;-73
2023/07/31 13:55:51;;;;;;;;;;;19.50;78.70;;;;;;5073357;28;20259;-73
2023/07/31 13:58:17;;;;;;;;;;;19.30;78.90;;;;;;5072280;28;20291;-73
2023/07/31 14:00:42;;;;;;;;;;;19.20;79.10;;;;;;5070387;28;19991;-70
2023/07/31 14:03:08;;;;;;;;;;;19.40;79.40;;;;;;5070126;28;20015;-70
2023/07/31 14:05:34;;;;;;;;;;;19.50;79.50;;;;;;5070298;28;19916;-73
2023/07/31 14:07:59;;;;;;;;;;;19.80;79.60;;;;;;5085908;28;20020;-73
2023/07/31 14:10:25;;;;;;;;;;;19.90;79.50;;;;;;5070061;28;20597;-71
2023/07/31 14:12:50;;;;;;;;;;;20.00;79.60;;;;;;5070311;28;19919;-71